createdAt,value
2018-10-16T00:00:07.370Z,16.03
2018-10-16T00:02:35.726Z,15.33
2018-10-16T00:05:04.446Z,15.93
2018-10-16T00:07:32.805Z,16.53
2018-10-16T00:10:01.209Z,17.43
2018-10-16T00:12:29.642Z,17.60
2018-10-16T00:14:58.031Z,17.70
2018-10-16T00:17:26.365Z,16.63
2018-10-16T00:19:54.728Z,16.60
2018-10-16T00:22:23.100Z,17.23
2018-10-16T00:24:51.448Z,17.10
2018-10-16T00:27:19.832Z,16.20
2018-10-16T00:29:48.236Z,16.60
2018-10-16T00:32:16.636Z,16.03
2018-10-16T00:34:44.971Z,16.30
2018-10-16T00:37:13.374Z,16.60
2018-10-16T00:39:41.724Z,16.23
2018-10-16T00:42:10.116Z,16.90
2018-10-16T00:44:38.536Z,15.73
2018-10-16T00:47:06.955Z,16.60
2018-10-16T00:49:35.269Z,16.50
2018-10-16T00:52:03.644Z,17.07
2018-10-16T00:54:32.005Z,16.57
2018-10-16T00:57:00.382Z,16.30
2018-10-16T00:59:28.743Z,16.60
2018-10-16T01:01:57.091Z,15.10
2018-10-16T01:04:25.480Z,15.73
2018-10-16T01:06:53.861Z,15.20
2018-10-16T01:09:22.246Z,15.87
2018-10-16T01:11:50.612Z,15.60
2018-10-16T01:14:18.972Z,15.87
2018-10-16T01:16:47.372Z,16.17
2018-10-16T01:19:15.841Z,14.90
2018-10-16T01:21:44.245Z,15.37
2018-10-16T01:24:12.646Z,15.90
2018-10-16T01:26:41.056Z,16.20
2018-10-16T01:29:09.452Z,15.40
2018-10-16T01:31:37.812Z,16.50
2018-10-16T01:34:06.192Z,15.57
2018-10-16T01:36:34.607Z,17.23
2018-10-16T01:39:03.024Z,16.20
2018-10-16T01:41:31.428Z,16.70
2018-10-16T01:43:59.801Z,16.27
2018-10-16T01:46:28.204Z,15.77
2018-10-16T01:48:56.560Z,15.23
2018-10-16T01:51:24.946Z,16.20
2018-10-16T01:53:53.365Z,15.67
2018-10-16T01:56:21.705Z,16.50
2018-10-16T01:58:50.057Z,15.77
2018-10-16T02:01:18.417Z,16.83
2018-10-16T02:03:46.737Z,15.53
2018-10-16T02:06:15.124Z,15.10
2018-10-16T02:08:43.497Z,15.30
2018-10-16T02:11:11.837Z,15.60
2018-10-16T02:13:40.195Z,14.93
2018-10-16T02:16:08.737Z,14.40
2018-10-16T02:18:37.141Z,15.13
2018-10-16T02:21:05.769Z,14.83
2018-10-16T02:23:34.148Z,15.33
2018-10-16T02:26:02.512Z,15.90
2018-10-16T02:28:30.869Z,14.97
2018-10-16T02:30:59.220Z,15.17
2018-10-16T02:33:27.577Z,15.20
2018-10-16T02:35:55.930Z,14.87
2018-10-16T02:38:24.233Z,15.10
2018-10-16T02:40:52.616Z,15.20
2018-10-16T02:43:20.965Z,16.40
2018-10-16T02:45:49.535Z,15.93
2018-10-16T02:48:17.876Z,16.37
2018-10-16T02:50:46.237Z,15.17
2018-10-16T02:53:14.569Z,17.07
2018-10-16T02:55:42.964Z,16.37
2018-10-16T02:58:11.276Z,16.40
2018-10-16T03:00:39.667Z,15.57
2018-10-16T03:03:08.011Z,16.70
2018-10-16T03:05:36.405Z,15.97
2018-10-16T03:08:04.804Z,15.97
2018-10-16T03:10:33.148Z,16.80
2018-10-16T03:13:01.515Z,16.03
2018-10-16T03:15:29.887Z,15.73
2018-10-16T03:17:58.260Z,16.60
2018-10-16T03:20:26.636Z,16.77
2018-10-16T03:22:54.933Z,15.40
2018-10-16T03:25:23.296Z,16.80
2018-10-16T03:27:51.668Z,16.50
2018-10-16T03:30:20.108Z,15.90
2018-10-16T03:32:48.457Z,15.67
2018-10-16T03:35:16.845Z,16.10
2018-10-16T03:37:45.196Z,16.03
2018-10-16T03:40:13.603Z,16.10
2018-10-16T03:42:42.528Z,16.73
2018-10-16T03:45:11.992Z,16.60
2018-10-16T03:47:40.946Z,16.40
2018-10-16T03:50:09.876Z,16.53
2018-10-16T03:52:38.191Z,16.20
2018-10-16T03:55:06.885Z,17.50
2018-10-16T03:57:35.257Z,15.97
2018-10-16T04:00:03.750Z,16.80
2018-10-16T04:02:32.120Z,15.03
2018-10-16T04:05:00.500Z,16.40
2018-10-16T04:07:28.869Z,16.10
2018-10-16T04:09:57.248Z,16.47
2018-10-16T04:12:25.603Z,16.07
2018-10-16T04:14:53.943Z,15.63
2018-10-16T04:17:22.337Z,16.40
2018-10-16T04:19:50.752Z,15.80
2018-10-16T04:22:19.136Z,16.73
2018-10-16T04:24:47.515Z,15.60
2018-10-16T04:27:15.885Z,15.07
2018-10-16T04:29:44.249Z,15.73
2018-10-16T04:32:12.585Z,15.77
2018-10-16T04:34:40.942Z,16.23
2018-10-16T04:37:10.485Z,16.13
2018-10-16T04:39:55.960Z,16.43
2018-10-16T04:42:38.318Z,16.30
2018-10-16T04:45:07.029Z,16.00
2018-10-16T04:47:35.408Z,15.80
2018-10-16T04:50:03.768Z,16.20
2018-10-16T04:52:32.129Z,15.37
2018-10-16T04:55:00.510Z,15.83
2018-10-16T04:57:28.833Z,16.67
2018-10-16T04:59:57.184Z,16.23
2018-10-16T05:02:25.573Z,16.27
2018-10-16T05:04:53.905Z,15.77
2018-10-16T05:07:23.160Z,17.10
2018-10-16T05:09:51.548Z,16.40
2018-10-16T05:12:19.923Z,15.47
2018-10-16T05:14:48.252Z,17.93
2018-10-16T05:17:16.639Z,17.10
2018-10-16T05:19:44.989Z,15.97
2018-10-16T05:22:13.333Z,17.00
2018-10-16T05:24:41.661Z,16.80
2018-10-16T05:27:10.039Z,16.50
2018-10-16T05:29:38.372Z,16.87
2018-10-16T05:32:06.760Z,16.80
2018-10-16T05:34:35.147Z,16.90
2018-10-16T05:37:03.523Z,17.43
2018-10-16T05:39:31.863Z,16.23
2018-10-16T05:42:00.217Z,16.93
2018-10-16T05:44:28.595Z,16.90
2018-10-16T05:46:56.953Z,16.07
2018-10-16T05:49:25.324Z,15.90
2018-10-16T05:51:53.880Z,16.97
2018-10-16T05:54:22.424Z,15.90
2018-10-16T05:56:50.682Z,16.20
2018-10-16T05:59:18.997Z,16.70
2018-10-16T06:01:47.324Z,17.05
2018-10-16T06:04:15.664Z,17.00
2018-10-16T06:06:44.024Z,17.05
2018-10-16T06:09:12.412Z,17.10
2018-10-16T06:11:40.789Z,16.77
2018-10-16T06:14:09.153Z,17.10
2018-10-16T06:16:37.503Z,16.93
2018-10-16T06:19:05.876Z,16.97
2018-10-16T06:21:34.192Z,17.30
2018-10-16T06:24:02.548Z,17.53
2018-10-16T06:26:30.932Z,16.27
2018-10-16T06:28:59.251Z,15.80
2018-10-16T06:31:27.617Z,17.15
2018-10-16T06:33:56.007Z,16.63
2018-10-16T06:36:24.363Z,16.77
2018-10-16T06:38:52.712Z,16.70
2018-10-16T06:41:21.209Z,15.53
2018-10-16T06:43:49.487Z,17.63
2018-10-16T06:46:17.849Z,16.53
2018-10-16T06:48:46.668Z,15.90
2018-10-16T06:51:14.562Z,16.50
2018-10-16T06:53:43.017Z,17.40
2018-10-16T06:56:11.391Z,17.67
2018-10-16T06:58:39.724Z,16.53
2018-10-16T07:01:08.061Z,15.20
2018-10-16T07:03:36.395Z,15.70
2018-10-16T07:06:04.804Z,17.90
2018-10-16T07:08:33.150Z,18.47
2018-10-16T07:11:01.498Z,18.73
2018-10-16T07:13:29.855Z,18.67
2018-10-16T07:15:58.236Z,17.77
2018-10-16T07:18:26.613Z,17.33
2018-10-16T07:20:54.960Z,17.60
2018-10-16T07:23:23.350Z,18.50
2018-10-16T07:25:51.652Z,18.87
2018-10-16T07:28:19.997Z,19.10
2018-10-16T07:30:48.327Z,18.43
2018-10-16T07:33:16.772Z,20.40
2018-10-16T07:35:45.129Z,19.40
2018-10-16T07:38:13.687Z,18.67
2018-10-16T07:40:41.858Z,21.07
2018-10-16T07:43:10.168Z,19.63
2018-10-16T07:45:38.570Z,20.20
2018-10-16T07:48:06.960Z,19.10
2018-10-16T07:50:35.314Z,20.73
2018-10-16T07:53:03.681Z,19.33
2018-10-16T07:55:32.139Z,19.80
2018-10-16T07:58:00.772Z,20.23
2018-10-16T08:00:29.212Z,21.90
2018-10-16T08:02:57.486Z,21.33
2018-10-16T08:05:25.819Z,20.67
2018-10-16T08:07:54.188Z,20.23
2018-10-16T08:10:22.544Z,22.10
2018-10-16T08:12:50.944Z,20.97
2018-10-16T08:15:19.324Z,20.93
2018-10-16T08:17:47.688Z,21.23
2018-10-16T08:20:16.033Z,21.80
2018-10-16T08:22:44.425Z,20.37
2018-10-16T08:25:12.778Z,20.80
2018-10-16T08:27:41.157Z,21.20
2018-10-16T08:30:10.158Z,22.33
2018-10-16T08:32:38.556Z,52.20
2018-10-16T08:35:06.925Z,34.57
2018-10-16T08:39:49.218Z,22.40
2018-10-16T08:43:26.813Z,20.50
2018-10-16T08:46:06.513Z,20.10
2018-10-16T08:48:47.030Z,20.80
2018-10-16T08:51:26.686Z,21.13
2018-10-16T08:53:55.348Z,20.73
2018-10-16T08:56:23.704Z,21.63
2018-10-16T08:58:52.094Z,23.20
2018-10-16T09:01:20.472Z,21.60
2018-10-16T09:03:48.810Z,22.13
2018-10-16T09:06:17.173Z,22.03
2018-10-16T09:08:45.531Z,21.53
2018-10-16T09:11:13.945Z,21.90
2018-10-16T09:13:42.364Z,23.10
2018-10-16T09:16:10.761Z,20.90
2018-10-16T09:18:39.120Z,22.63
2018-10-16T09:21:07.515Z,21.30
2018-10-16T09:23:36.060Z,21.80
2018-10-16T09:26:04.775Z,22.17
2018-10-16T09:28:39.109Z,22.00
2018-10-16T09:31:07.554Z,21.77
2018-10-16T09:33:35.832Z,22.10
2018-10-16T09:36:04.256Z,20.90
2018-10-16T09:38:32.606Z,22.00
2018-10-16T09:41:01.024Z,22.10
2018-10-16T09:43:29.348Z,22.37
2018-10-16T09:45:57.727Z,21.07
2018-10-16T09:48:26.118Z,20.60
2018-10-16T09:50:54.487Z,20.70
2018-10-16T09:53:22.864Z,20.80
2018-10-16T09:55:51.231Z,20.90
2018-10-16T09:58:19.628Z,20.60
2018-10-16T10:00:54.185Z,21.50
2018-10-16T10:03:22.527Z,19.37
2018-10-16T10:05:50.919Z,19.47
2018-10-16T10:08:19.325Z,19.20
2018-10-16T10:10:47.727Z,19.27
2018-10-16T10:13:16.133Z,18.10
2018-10-16T10:15:44.524Z,18.20
2018-10-16T10:18:12.910Z,18.20
2018-10-16T10:20:41.274Z,18.30
2018-10-16T10:23:09.657Z,17.90
2018-10-16T10:25:38.082Z,17.50
2018-10-16T10:28:06.502Z,17.00
2018-10-16T10:30:35.109Z,18.37
2018-10-16T10:33:03.490Z,17.67
2018-10-16T10:35:32.042Z,17.17
2018-10-16T10:38:00.360Z,17.47
2018-10-16T10:40:28.740Z,16.53
2018-10-16T10:42:57.104Z,15.50
2018-10-16T10:45:25.420Z,15.27
2018-10-16T10:47:53.852Z,15.60
2018-10-16T10:50:22.484Z,15.70
2018-10-16T10:52:50.623Z,15.03
2018-10-16T10:55:18.943Z,15.17
2018-10-16T10:57:47.276Z,14.27
2018-10-16T11:00:15.649Z,15.37
2018-10-16T11:02:45.619Z,15.53
2018-10-16T11:05:13.965Z,15.50
2018-10-16T11:07:42.329Z,15.47
2018-10-16T11:10:12.224Z,16.00
2018-10-16T11:12:41.103Z,16.13
2018-10-16T11:15:09.666Z,15.80
2018-10-16T11:17:38.427Z,16.03
2018-10-16T11:20:07.950Z,15.70
2018-10-16T11:22:36.340Z,15.97
2018-10-16T11:25:05.851Z,15.00
2018-10-16T11:27:34.212Z,15.87
2018-10-16T11:30:02.639Z,13.97
2018-10-16T11:32:30.929Z,15.30
2018-10-16T11:34:59.343Z,16.20
2018-10-16T11:37:27.720Z,14.83
2018-10-16T11:39:56.072Z,13.87
2018-10-16T11:42:24.425Z,14.17
2018-10-16T11:44:52.798Z,13.70
2018-10-16T11:47:21.110Z,12.40
2018-10-16T11:49:49.484Z,13.30
2018-10-16T11:52:17.951Z,14.00
2018-10-16T11:54:46.517Z,13.00
2018-10-16T11:57:14.849Z,12.50
2018-10-16T11:59:43.233Z,13.07
2018-10-16T12:02:11.710Z,13.13
2018-10-16T12:04:40.044Z,12.93
2018-10-16T12:07:08.484Z,12.67
2018-10-16T12:09:36.823Z,11.90
2018-10-16T12:12:05.214Z,11.20
2018-10-16T12:14:33.557Z,11.73
2018-10-16T12:17:05.957Z,11.93
2018-10-16T12:19:37.849Z,12.23
2018-10-16T12:22:06.602Z,12.10
2018-10-16T12:24:35.004Z,11.50
2018-10-16T12:27:03.442Z,12.07
2018-10-16T12:29:31.761Z,11.07
2018-10-16T12:32:00.172Z,11.03
2018-10-16T12:34:28.533Z,11.40
2018-10-16T12:36:56.897Z,11.70
2018-10-16T12:39:25.252Z,10.80
2018-10-16T12:41:53.604Z,10.77
2018-10-16T12:44:22.013Z,11.13
2018-10-16T12:46:50.430Z,10.43
2018-10-16T12:49:18.773Z,10.80
2018-10-16T12:51:47.120Z,11.10
2018-10-16T12:54:15.526Z,10.00
2018-10-16T12:56:43.858Z,10.60
2018-10-16T12:59:12.252Z,10.40
2018-10-16T13:01:40.521Z,9.90
2018-10-16T13:04:08.925Z,10.10
2018-10-16T13:06:37.301Z,10.20
2018-10-16T13:09:08.343Z,10.80
2018-10-16T13:11:36.672Z,10.30
2018-10-16T13:14:05.092Z,9.77
2018-10-16T13:16:33.414Z,10.30
2018-10-16T13:19:01.750Z,9.97
2018-10-16T13:21:30.133Z,8.80
2018-10-16T13:23:58.531Z,9.73
2018-10-16T13:26:26.919Z,9.13
2018-10-16T13:28:55.342Z,9.50
2018-10-16T13:31:23.644Z,9.07
2018-10-16T13:33:52.012Z,9.53
2018-10-16T13:36:20.308Z,9.07
2018-10-16T13:38:48.680Z,9.20
2018-10-16T13:41:17.022Z,9.60
2018-10-16T13:43:45.436Z,9.30
2018-10-16T13:46:13.823Z,9.10
2018-10-16T13:48:42.173Z,8.80
2018-10-16T13:51:10.520Z,10.17
2018-10-16T13:53:38.855Z,10.00
2018-10-16T13:56:07.567Z,9.20
2018-10-16T13:58:35.892Z,9.90
2018-10-16T14:01:04.595Z,9.60
2018-10-16T14:03:32.957Z,9.67
2018-10-16T14:06:01.318Z,10.03
2018-10-16T14:08:29.700Z,9.67
2018-10-16T14:10:58.066Z,9.23
2018-10-16T14:13:26.592Z,10.27
2018-10-16T14:15:54.971Z,9.43
2018-10-16T14:18:23.300Z,9.83
2018-10-16T14:20:51.641Z,9.73
2018-10-16T14:23:20.015Z,10.07
2018-10-16T14:25:48.364Z,10.03
2018-10-16T14:28:16.850Z,9.80
2018-10-16T14:30:45.076Z,10.90
2018-10-16T14:33:13.406Z,10.40
2018-10-16T14:35:41.777Z,10.70
2018-10-16T14:38:10.161Z,10.73
2018-10-16T14:40:38.525Z,10.80
2018-10-16T14:43:06.914Z,10.60
2018-10-16T14:45:35.284Z,10.83
2018-10-16T14:48:03.760Z,10.43
2018-10-16T14:50:32.093Z,11.43
2018-10-16T14:53:00.430Z,11.17
2018-10-16T14:55:28.809Z,10.73
2018-10-16T14:57:57.218Z,10.63
2018-10-16T15:00:25.526Z,10.63
2018-10-16T15:02:53.908Z,11.03
2018-10-16T15:05:22.269Z,11.23
2018-10-16T15:07:50.631Z,10.63
2018-10-16T15:10:19.088Z,11.40
2018-10-16T15:12:47.426Z,10.80
2018-10-16T15:15:15.840Z,10.53
2018-10-16T15:17:44.237Z,11.53
2018-10-16T15:20:12.740Z,11.03
2018-10-16T15:22:41.002Z,11.57
2018-10-16T15:25:09.920Z,10.90
2018-10-16T15:27:38.303Z,11.60
2018-10-16T15:30:08.005Z,11.53
2018-10-16T15:32:36.466Z,11.20
2018-10-16T15:35:05.757Z,11.27
2018-10-16T15:37:34.203Z,9.87
2018-10-16T15:40:02.663Z,11.93
2018-10-16T15:42:30.940Z,11.47
2018-10-16T15:44:59.327Z,11.23
2018-10-16T15:47:27.712Z,11.70
2018-10-16T15:49:56.060Z,12.83
2018-10-16T15:52:24.741Z,10.77
2018-10-16T15:54:53.084Z,11.00
2018-10-16T15:57:21.439Z,12.63
2018-10-16T15:59:49.816Z,10.90
2018-10-16T16:02:18.232Z,11.83
2018-10-16T16:04:46.561Z,11.70
2018-10-16T16:07:14.933Z,11.97
2018-10-16T16:09:43.281Z,12.20
2018-10-16T16:12:11.782Z,11.90
2018-10-16T16:14:40.083Z,12.47
2018-10-16T16:17:08.453Z,12.03
2018-10-16T16:19:36.818Z,11.90
2018-10-16T16:22:05.607Z,11.80
2018-10-16T16:24:33.932Z,12.10
2018-10-16T16:27:02.565Z,11.87
2018-10-16T16:29:31.009Z,12.57
2018-10-16T16:31:59.449Z,12.50
2018-10-16T16:34:27.814Z,11.97
2018-10-16T16:36:56.212Z,11.20
2018-10-16T16:39:24.615Z,11.57
2018-10-16T16:41:53.036Z,15.03
2018-10-16T16:44:21.455Z,13.10
2018-10-16T16:46:49.869Z,45.53
2018-10-16T16:49:18.255Z,34.53
2018-10-16T16:51:46.679Z,21.07
2018-10-16T16:54:15.040Z,19.47
2018-10-16T16:56:43.440Z,16.10
2018-10-16T16:59:11.885Z,13.47
2018-10-16T17:01:40.249Z,14.77
2018-10-16T17:04:08.677Z,13.87
2018-10-16T17:06:37.076Z,13.90
2018-10-16T17:09:08.971Z,12.63
2018-10-16T17:11:37.948Z,13.50
2018-10-16T17:14:06.742Z,13.80
2018-10-16T17:16:37.119Z,13.63
2018-10-16T17:19:06.019Z,13.80
2018-10-16T17:21:34.561Z,13.30
2018-10-16T17:24:02.938Z,13.80
2018-10-16T17:26:31.316Z,13.17
2018-10-16T17:28:59.706Z,14.00
2018-10-16T17:31:28.098Z,13.43
2018-10-16T17:33:56.538Z,14.50
2018-10-16T17:36:24.883Z,14.20
2018-10-16T17:38:53.264Z,13.53
2018-10-16T17:41:21.680Z,13.90
2018-10-16T17:43:50.053Z,13.80
2018-10-16T17:46:18.453Z,13.70
2018-10-16T17:48:46.829Z,14.80
2018-10-16T17:51:15.214Z,14.50
2018-10-16T17:53:43.612Z,15.30
2018-10-16T17:56:12.061Z,15.37
2018-10-16T17:58:40.441Z,15.53
2018-10-16T18:01:08.819Z,16.27
2018-10-16T18:03:37.252Z,16.37
2018-10-16T18:06:05.777Z,15.77
2018-10-16T18:08:34.181Z,16.13
2018-10-16T18:11:02.661Z,16.30
2018-10-16T18:13:31.179Z,17.10
2018-10-16T18:15:59.649Z,16.67
2018-10-16T18:18:28.160Z,16.33
2018-10-16T18:20:56.844Z,16.40
2018-10-16T18:23:25.315Z,15.60
2018-10-16T18:25:54.175Z,15.53
2018-10-16T18:28:22.549Z,15.57
2018-10-16T18:30:50.965Z,15.90
2018-10-16T18:33:19.415Z,17.17
2018-10-16T18:35:47.785Z,15.33
2018-10-16T18:38:16.569Z,15.77
2018-10-16T18:40:45.071Z,15.07
2018-10-16T18:43:13.432Z,14.70
2018-10-16T18:45:41.945Z,14.73
2018-10-16T18:48:10.365Z,14.23
2018-10-16T18:50:38.762Z,14.20
2018-10-16T18:53:07.202Z,15.73
2018-10-16T18:55:35.602Z,14.57
2018-10-16T18:58:03.992Z,15.07
2018-10-16T19:00:32.427Z,15.83
2018-10-16T19:03:00.901Z,15.30
2018-10-16T19:05:29.265Z,15.60
2018-10-16T19:07:57.960Z,16.27
2018-10-16T19:10:26.681Z,15.00
2018-10-16T19:12:55.335Z,16.67
2018-10-16T19:15:23.826Z,16.47
2018-10-16T19:17:52.528Z,16.50
2018-10-16T19:20:20.948Z,16.13
2018-10-16T19:22:49.398Z,15.77
2018-10-16T19:25:19.703Z,17.00
2018-10-16T19:27:48.866Z,15.27
2018-10-16T19:30:18.633Z,17.10
2018-10-16T19:32:48.385Z,16.23
2018-10-16T19:35:18.967Z,16.70
2018-10-16T19:37:48.732Z,15.80
2018-10-16T19:40:17.144Z,17.17
2018-10-16T19:42:45.532Z,17.43
2018-10-16T19:45:14.451Z,16.70
2018-10-16T19:47:44.738Z,17.37
2018-10-16T19:50:14.877Z,17.03
2018-10-16T19:52:44.306Z,16.87
2018-10-16T19:55:14.068Z,17.00
2018-10-16T19:57:43.677Z,16.37
2018-10-16T20:00:12.519Z,17.43
2018-10-16T20:02:42.313Z,17.10
2018-10-16T20:05:12.796Z,16.80
2018-10-16T20:07:42.620Z,15.93
2018-10-16T20:10:12.973Z,16.70
2018-10-16T20:12:42.829Z,19.10
2018-10-16T20:15:13.244Z,18.63
2018-10-16T20:17:43.169Z,18.73
2018-10-16T20:20:13.620Z,19.10
2018-10-16T20:22:44.727Z,19.00
2018-10-16T20:25:14.517Z,20.50
2018-10-16T20:27:45.255Z,20.23
2018-10-16T20:30:13.728Z,19.67
2018-10-16T20:32:42.261Z,18.77
2018-10-16T20:35:10.749Z,20.90
2018-10-16T20:37:39.286Z,25.90
2018-10-16T20:40:07.945Z,28.67
2018-10-16T20:42:36.916Z,40.90
2018-10-16T20:45:05.492Z,22.60
2018-10-16T20:47:34.031Z,21.70
2018-10-16T20:50:02.320Z,19.83
2018-10-16T20:52:30.698Z,21.50
2018-10-16T20:54:59.111Z,18.53
2018-10-16T20:57:27.578Z,18.93
2018-10-16T20:59:56.516Z,19.90
2018-10-16T21:02:24.950Z,19.70
2018-10-16T21:04:53.441Z,20.87
2018-10-16T21:07:21.763Z,21.70
2018-10-16T21:09:50.137Z,20.13
2018-10-16T21:12:18.505Z,20.03
2018-10-16T21:14:46.895Z,19.73
2018-10-16T21:17:15.260Z,19.20
2018-10-16T21:19:43.641Z,19.73
2018-10-16T21:22:12.014Z,19.20
2018-10-16T21:24:40.363Z,19.00
2018-10-16T21:27:10.886Z,17.80
2018-10-16T21:29:39.228Z,20.00
2018-10-16T21:32:08.266Z,20.13
2018-10-16T21:34:36.641Z,19.33
2018-10-16T21:37:05.191Z,19.03
2018-10-16T21:39:33.496Z,18.90
2018-10-16T21:42:01.860Z,17.73
2018-10-16T21:44:30.177Z,20.63
2018-10-16T21:46:58.558Z,20.57
2018-10-16T21:49:26.853Z,19.10
2018-10-16T21:51:55.219Z,20.67
2018-10-16T21:54:23.553Z,19.63
2018-10-16T21:56:51.921Z,20.00
2018-10-16T21:59:20.383Z,17.83
2018-10-16T22:01:54.020Z,18.63
2018-10-16T22:04:22.358Z,18.53
2018-10-16T22:06:50.749Z,20.00
2018-10-16T22:09:19.072Z,19.70
2018-10-16T22:11:47.441Z,18.90
2018-10-16T22:14:15.789Z,18.83
2018-10-16T22:16:44.141Z,21.67
2018-10-16T22:19:12.555Z,20.27
2018-10-16T22:21:40.868Z,19.90
2018-10-16T22:24:09.220Z,21.53
2018-10-16T22:26:37.556Z,26.57
2018-10-16T22:29:06.005Z,20.90
2018-10-16T22:31:34.301Z,20.37
2018-10-16T22:34:02.672Z,19.60
2018-10-16T22:36:31.240Z,20.03
2018-10-16T22:38:59.586Z,19.17
2018-10-16T22:41:27.964Z,18.90
2018-10-16T22:43:56.361Z,19.63
2018-10-16T22:46:24.744Z,19.53
2018-10-16T22:48:53.185Z,20.63
2018-10-16T22:51:21.518Z,19.57
2018-10-16T22:53:49.938Z,21.43
2018-10-16T22:56:18.305Z,19.33
2018-10-16T22:58:46.648Z,18.70
2018-10-16T23:01:15.000Z,19.53
2018-10-16T23:03:43.393Z,20.70
2018-10-16T23:06:11.723Z,20.03
2018-10-16T23:08:40.076Z,20.87
2018-10-16T23:11:08.436Z,19.57
2018-10-16T23:13:36.755Z,19.10
2018-10-16T23:16:05.137Z,20.13
2018-10-16T23:18:33.501Z,19.87
2018-10-16T23:21:01.836Z,19.93
2018-10-16T23:23:30.212Z,18.83
2018-10-16T23:25:58.608Z,18.80
2018-10-16T23:28:26.973Z,17.67
2018-10-16T23:30:55.340Z,19.57
2018-10-16T23:33:23.655Z,19.60
2018-10-16T23:35:51.990Z,19.30
2018-10-16T23:38:20.368Z,20.07
2018-10-16T23:40:48.714Z,19.73
2018-10-16T23:43:17.153Z,19.30
2018-10-16T23:45:45.516Z,18.80
2018-10-16T23:48:13.816Z,18.87
2018-10-16T23:50:42.169Z,18.93
2018-10-16T23:53:10.617Z,19.07
2018-10-16T23:55:38.880Z,18.50
2018-10-16T23:58:07.253Z,19.60
